createdAt,value
2023-04-15T00:02:20.756Z,9.48
2023-04-15T00:07:25.141Z,6.45
2023-04-15T00:12:29.821Z,3.22
2023-04-15T00:17:35.414Z,2.65
2023-04-15T00:22:39.935Z,5.40
2023-04-15T00:27:43.950Z,9.27
2023-04-15T00:32:49.645Z,7.70
2023-04-15T00:37:58.545Z,11.50
2023-04-15T00:43:03.111Z,11.43
2023-04-15T00:48:09.636Z,11.57
2023-04-15T00:53:13.641Z,16.65
2023-04-15T00:58:18.487Z,13.65
2023-04-15T01:03:24.240Z,17.70
2023-04-15T01:08:30.069Z,15.43
2023-04-15T01:13:37.721Z,21.75
2023-04-15T01:18:43.428Z,18.10
2023-04-15T01:23:49.377Z,13.10
2023-04-15T01:28:54.995Z,13.70
2023-04-15T01:33:59.243Z,11.18
2023-04-15T01:39:22.752Z,7.95
2023-04-15T01:44:28.008Z,6.55
2023-04-15T01:49:34.151Z,6.22
2023-04-15T01:54:40.050Z,7.68
2023-04-15T01:59:47.668Z,10.65
2023-04-15T02:04:53.930Z,7.53
2023-04-15T02:10:00.937Z,7.22
2023-04-15T02:15:09.464Z,7.00
2023-04-15T02:20:14.855Z,8.23
2023-04-15T02:25:20.616Z,8.20
2023-04-15T02:30:27.389Z,10.80
2023-04-15T02:35:32.974Z,11.25
2023-04-15T02:40:38.647Z,11.68
2023-04-15T02:45:48.875Z,15.45
2023-04-15T02:50:54.538Z,9.50
2023-04-15T02:56:00.170Z,7.18
2023-04-15T03:01:07.711Z,7.47
2023-04-15T03:06:13.966Z,4.05
2023-04-15T03:11:19.507Z,5.15
2023-04-15T03:16:28.077Z,4.57
2023-04-15T03:21:33.489Z,5.07
2023-04-15T03:26:38.915Z,5.90
2023-04-15T03:31:52.239Z,7.57
2023-04-15T03:36:58.134Z,8.30
2023-04-15T03:42:04.006Z,5.05
2023-04-15T03:47:11.123Z,5.05
2023-04-15T03:52:16.498Z,5.20
2023-04-15T03:57:22.128Z,6.78
2023-04-15T04:02:29.397Z,6.78
2023-04-15T04:07:34.795Z,13.90
2023-04-15T04:12:40.151Z,8.40
2023-04-15T04:17:46.915Z,6.95
2023-04-15T04:22:52.222Z,8.95
2023-04-15T04:27:57.630Z,10.77
2023-04-15T04:38:36.622Z,12.98
2023-04-15T04:43:43.017Z,18.23
2023-04-15T04:48:50.188Z,17.15
2023-04-15T04:53:56.767Z,18.25
2023-04-15T04:59:02.257Z,15.35
2023-04-15T05:04:09.392Z,29.30
2023-04-15T05:09:17.311Z,20.45
2023-04-15T05:14:23.515Z,9.60
2023-04-15T05:19:31.834Z,7.15
2023-04-15T05:24:37.681Z,7.05
2023-04-15T05:29:43.246Z,5.80
2023-04-15T05:34:50.527Z,4.78
2023-04-15T05:39:57.116Z,5.03
2023-04-15T05:45:05.489Z,7.22
2023-04-15T05:50:12.899Z,5.47
2023-04-15T05:55:18.454Z,28.77
2023-04-15T06:00:24.453Z,20.60
2023-04-15T06:05:34.784Z,12.82
2023-04-15T06:10:40.392Z,11.00
2023-04-15T06:15:47.035Z,4.20
2023-04-15T06:20:55.544Z,4.65
2023-04-15T06:26:01.242Z,5.00
2023-04-15T06:31:08.063Z,5.47
2023-04-15T06:36:15.643Z,7.45
2023-04-15T06:41:21.468Z,3.67
2023-04-15T06:46:29.723Z,2.97
2023-04-15T06:51:38.142Z,4.28
2023-04-15T06:56:43.458Z,5.18
2023-04-15T07:01:49.388Z,6.38
2023-04-15T07:06:56.943Z,6.07
2023-04-15T07:12:04.222Z,4.53
2023-04-15T07:17:11.597Z,2.78
2023-04-15T07:22:19.243Z,1.70
2023-04-15T07:27:24.648Z,1.27
2023-04-15T07:32:30.405Z,0.90
2023-04-15T07:37:37.429Z,0.90
2023-04-15T07:42:43.886Z,1.50
2023-04-15T07:47:49.689Z,1.25
2023-04-15T07:52:57.830Z,0.93
2023-04-15T07:58:03.573Z,1.98
2023-04-15T08:03:09.058Z,1.30
2023-04-15T08:08:16.842Z,1.30
2023-04-15T08:13:22.670Z,1.85
2023-04-15T08:18:27.959Z,1.63
2023-04-15T08:23:35.100Z,1.42
2023-04-15T08:28:42.346Z,1.60
2023-04-15T08:33:50.130Z,1.00
2023-04-15T08:38:57.774Z,0.88
2023-04-15T08:44:06.001Z,1.08
2023-04-15T08:49:13.680Z,1.27
2023-04-15T08:54:21.673Z,1.33
2023-04-15T08:59:27.528Z,1.17
2023-04-15T09:04:33.339Z,0.77
2023-04-15T09:09:43.392Z,1.10
2023-04-15T09:14:49.508Z,0.73
2023-04-15T09:20:10.035Z,0.85
2023-04-15T09:25:34.295Z,1.02
2023-04-15T09:30:46.916Z,0.80
2023-04-15T09:36:01.601Z,0.73
2023-04-15T09:41:19.290Z,0.75
2023-04-15T09:46:43.787Z,1.52
2023-04-15T09:52:04.072Z,0.85
2023-04-15T09:57:12.393Z,1.08
2023-04-15T10:02:20.076Z,1.20
2023-04-15T10:07:26.975Z,0.90
2023-04-15T10:12:34.547Z,1.20
2023-04-15T10:17:43.353Z,0.98
2023-04-15T10:22:49.779Z,0.93
2023-04-15T10:27:58.021Z,1.02
2023-04-15T10:33:07.881Z,0.95
2023-04-15T10:38:40.536Z,1.25
2023-04-15T10:43:55.279Z,3.90
2023-04-15T10:49:08.134Z,0.98
2023-04-15T10:54:16.570Z,1.27
2023-04-15T10:59:24.439Z,4.83
2023-04-15T11:04:57.361Z,1.02
2023-04-15T11:10:04.043Z,0.80
2023-04-15T11:15:33.024Z,0.80
2023-04-15T11:20:39.482Z,0.90
2023-04-15T11:25:45.775Z,1.27
2023-04-15T11:30:54.326Z,5.60
2023-04-15T11:36:00.658Z,0.98
2023-04-15T11:41:06.418Z,2.53
2023-04-15T11:46:13.598Z,1.48
2023-04-15T11:51:21.123Z,2.65
2023-04-15T11:56:26.612Z,1.13
2023-04-15T12:01:39.626Z,0.82
2023-04-15T12:06:43.967Z,1.13
2023-04-15T12:17:18.078Z,0.88
2023-04-15T12:22:25.490Z,0.90
2023-04-15T12:27:29.883Z,0.93
2023-04-15T12:32:38.729Z,1.20
2023-04-15T12:37:44.067Z,1.10
2023-04-15T12:42:48.903Z,2.30
2023-04-15T12:47:54.668Z,1.98
2023-04-15T12:52:59.140Z,1.15
2023-04-15T12:58:03.887Z,1.20
2023-04-15T13:03:09.576Z,1.73
2023-04-15T13:08:13.840Z,1.67
2023-04-15T13:13:18.136Z,1.45
2023-04-15T13:18:24.183Z,1.30
2023-04-15T13:23:29.224Z,1.88
2023-04-15T13:28:33.475Z,1.40
2023-04-15T13:33:39.090Z,2.30
2023-04-15T13:38:43.399Z,1.40
2023-04-15T13:43:47.460Z,1.52
2023-04-15T13:48:52.903Z,1.70
2023-04-15T13:53:58.257Z,1.42
2023-04-15T13:59:03.275Z,1.10
2023-04-15T14:04:11.246Z,1.65
2023-04-15T14:09:16.110Z,1.30
2023-04-15T14:14:20.617Z,3.30
2023-04-15T14:19:26.692Z,1.85
2023-04-15T14:24:32.137Z,6.57
2023-04-15T14:29:37.245Z,1.80
2023-04-15T14:34:43.337Z,5.10
2023-04-15T14:39:48.939Z,2.72
2023-04-15T14:44:53.065Z,1.38
2023-04-15T14:49:59.233Z,1.58
2023-04-15T14:55:04.069Z,2.08
2023-04-15T15:00:10.007Z,1.58
2023-04-15T15:05:18.180Z,1.42
2023-04-15T15:10:44.177Z,1.70
2023-04-15T15:15:50.820Z,4.75
2023-04-15T15:20:59.853Z,4.47
2023-04-15T15:26:04.217Z,2.90
2023-04-15T15:31:10.685Z,5.25
2023-04-15T15:36:19.162Z,4.35
2023-04-15T15:41:23.218Z,2.47
2023-04-15T15:46:28.408Z,9.43
2023-04-15T15:51:34.009Z,9.65
2023-04-15T15:56:39.588Z,12.40
2023-04-15T16:01:44.521Z,11.80
2023-04-15T16:06:50.242Z,6.07
2023-04-15T16:11:55.578Z,9.50
2023-04-15T16:17:00.390Z,11.57
2023-04-15T16:22:06.221Z,11.68
2023-04-15T16:27:16.122Z,11.10
2023-04-15T16:32:20.298Z,8.82
2023-04-15T16:37:25.976Z,16.08
2023-04-15T16:42:30.998Z,12.00
2023-04-15T16:47:35.368Z,15.52
2023-04-15T16:52:40.830Z,12.38
2023-04-15T16:58:00.946Z,4.78
2023-04-15T17:03:07.501Z,4.60
2023-04-15T17:08:14.377Z,9.10
2023-04-15T17:13:18.650Z,10.52
2023-04-15T17:18:23.111Z,10.15
2023-04-15T17:23:41.358Z,14.95
2023-04-15T17:28:46.168Z,14.80
2023-04-15T17:34:02.010Z,13.90
2023-04-15T17:39:15.741Z,12.75
2023-04-15T17:44:41.311Z,26.75
2023-04-15T17:50:05.521Z,20.98
2023-04-15T17:55:31.107Z,18.15
2023-04-15T18:00:55.368Z,20.20
2023-04-15T18:06:22.115Z,6.57
2023-04-15T18:11:48.517Z,19.67
2023-04-15T18:17:15.453Z,16.33
2023-04-15T18:22:39.508Z,39.03
2023-04-15T18:27:45.964Z,30.35
2023-04-15T18:32:50.282Z,20.70
2023-04-15T18:37:54.536Z,25.60
2023-04-15T18:43:02.796Z,21.20
2023-04-15T18:48:08.541Z,11.43
2023-04-15T18:53:13.660Z,15.07
2023-04-15T18:58:19.577Z,10.00
2023-04-15T19:03:24.065Z,12.02
2023-04-15T19:08:29.782Z,12.73
2023-04-15T19:13:35.776Z,18.13
2023-04-15T19:18:39.791Z,15.50
2023-04-15T19:23:44.860Z,13.25
2023-04-15T19:28:53.219Z,15.23
2023-04-15T19:33:58.129Z,18.83
2023-04-15T19:39:02.720Z,14.68
2023-04-15T19:44:09.156Z,13.68
2023-04-15T19:49:15.814Z,11.68
2023-04-15T19:54:20.091Z,10.32
2023-04-15T19:59:27.798Z,13.73
2023-04-15T20:04:32.644Z,5.18
2023-04-15T20:09:37.540Z,2.75
2023-04-15T20:14:45.230Z,7.80
2023-04-15T20:19:49.306Z,6.88
2023-04-15T20:24:53.581Z,4.90
2023-04-15T20:29:59.092Z,7.90
2023-04-15T20:35:03.916Z,7.60
2023-04-15T20:40:09.483Z,6.22
2023-04-15T20:45:16.453Z,5.13
2023-04-15T20:50:21.118Z,5.63
2023-04-15T20:55:25.107Z,4.85
2023-04-15T21:00:33.295Z,3.85
2023-04-15T21:05:37.516Z,7.95
2023-04-15T21:10:41.606Z,6.55
2023-04-15T21:15:50.409Z,7.63
2023-04-15T21:20:58.178Z,5.18
2023-04-15T21:26:02.776Z,4.90
2023-04-15T21:31:08.665Z,4.78
2023-04-15T21:36:12.698Z,4.88
2023-04-15T21:41:16.716Z,6.13
2023-04-15T21:46:32.957Z,3.50
2023-04-15T21:51:39.167Z,2.78
2023-04-15T21:56:43.866Z,2.38
2023-04-15T22:01:49.573Z,3.65
2023-04-15T22:06:58.349Z,5.05
2023-04-15T22:12:02.407Z,4.67
2023-04-15T22:17:09.851Z,6.22
2023-04-15T22:22:13.892Z,6.10
2023-04-15T22:27:18.023Z,6.68
2023-04-15T22:32:24.537Z,8.02
2023-04-15T22:37:30.584Z,7.90
2023-04-15T22:42:35.640Z,4.45
2023-04-15T22:47:41.117Z,5.28
2023-04-15T22:52:46.349Z,4.03
2023-04-15T22:57:50.605Z,4.03
2023-04-15T23:02:56.406Z,6.38
2023-04-15T23:08:00.519Z,7.53
2023-04-15T23:13:04.547Z,5.53
2023-04-15T23:18:10.254Z,4.57
2023-04-15T23:23:15.824Z,3.95
2023-04-15T23:28:19.889Z,4.45
2023-04-15T23:33:26.297Z,4.53
2023-04-15T23:38:30.781Z,3.95
2023-04-15T23:43:34.928Z,4.20
2023-04-15T23:48:40.787Z,5.95
2023-04-15T23:53:45.000Z,3.35
2023-04-15T23:58:49.215Z,3.78
